Twin Lakes, Colorado
Current Conditions -  °F | °C
As of 3:53 PM on Saturday 25 Oct 2014 (Local Time) from KLXV Reporting Station
Clear Clear  
Wind Chill: 61°   Ceiling: Unl
Heat Index: 61°   Visibility: 10mi
Dew Point:   Wind: 13mph
Humidity: 12%   Direction: 280°W
Pressure: 30.38"   Gusts: 18mph
Location:  39.08°N, 106.38°W
Report Text: KLXV 252153Z AUTO 28011G16KT 10SM CLR 16/M14 A3038 RMK AO2 SLP167 T01611139
Loading
Personal Weather Stations






























Interactive Weather Map
Tropical Storm Tracking
New forecast layout! Learn more

10-Day Weather Forecast

Advertisements
Track Severe Weather on mobile